sensor_id;sensor_type;location;lat;lon;timestamp;P1;durP1;ratioP1;P2;durP2;ratioP2
15342;SDS011;7771;48.478;8.936;2022-09-09T00:02:20;2.57;;;1.10;;
15342;SDS011;7771;48.478;8.936;2022-09-09T00:04:52;3.63;;;1.20;;
15342;SDS011;7771;48.478;8.936;2022-09-09T00:07:20;2.53;;;1.20;;
15342;SDS011;7771;48.478;8.936;2022-09-09T00:09:45;3.10;;;1.23;;
15342;SDS011;7771;48.478;8.936;2022-09-09T00:12:15;2.63;;;1.70;;
15342;SDS011;7771;48.478;8.936;2022-09-09T00:14:43;3.03;;;1.27;;
15342;SDS011;7771;48.478;8.936;2022-09-09T00:17:09;4.43;;;1.40;;
15342;SDS011;7771;48.478;8.936;2022-09-09T00:19:38;2.90;;;1.17;;
15342;SDS011;7771;48.478;8.936;2022-09-09T00:22:07;3.00;;;1.30;;
15342;SDS011;7771;48.478;8.936;2022-09-09T00:24:54;3.50;;;1.60;;
15342;SDS011;7771;48.478;8.936;2022-09-09T00:27:40;6.30;;;1.20;;
15342;SDS011;7771;48.478;8.936;2022-09-09T00:30:23;2.63;;;1.27;;
15342;SDS011;7771;48.478;8.936;2022-09-09T00:32:49;6.37;;;1.37;;
15342;SDS011;7771;48.478;8.936;2022-09-09T00:35:49;2.83;;;1.10;;
15342;SDS011;7771;48.478;8.936;2022-09-09T00:38:01;2.03;;;1.33;;
15342;SDS011;7771;48.478;8.936;2022-09-09T00:40:33;2.43;;;1.10;;
15342;SDS011;7771;48.478;8.936;2022-09-09T00:45:37;4.17;;;1.20;;
15342;SDS011;7771;48.478;8.936;2022-09-09T00:48:03;2.40;;;1.40;;
15342;SDS011;7771;48.478;8.936;2022-09-09T00:53:12;3.23;;;1.73;;
15342;SDS011;7771;48.478;8.936;2022-09-09T00:55:48;4.77;;;2.03;;
15342;SDS011;7771;48.478;8.936;2022-09-09T00:58:23;3.07;;;1.90;;
15342;SDS011;7771;48.478;8.936;2022-09-09T01:00:51;3.97;;;1.50;;
15342;SDS011;7771;48.478;8.936;2022-09-09T01:03:20;1.60;;;1.20;;
15342;SDS011;7771;48.478;8.936;2022-09-09T01:05:51;2.37;;;1.67;;
15342;SDS011;7771;48.478;8.936;2022-09-09T01:11:05;4.83;;;1.60;;
15342;SDS011;7771;48.478;8.936;2022-09-09T01:13:32;3.90;;;1.37;;
15342;SDS011;7771;48.478;8.936;2022-09-09T01:15:59;3.23;;;1.57;;
15342;SDS011;7771;48.478;8.936;2022-09-09T01:18:27;1.90;;;1.27;;
15342;SDS011;7771;48.478;8.936;2022-09-09T01:23:44;5.47;;;2.53;;
15342;SDS011;7771;48.478;8.936;2022-09-09T01:26:13;4.13;;;2.00;;
15342;SDS011;7771;48.478;8.936;2022-09-09T01:28:46;3.00;;;1.53;;
15342;SDS011;7771;48.478;8.936;2022-09-09T01:31:14;2.57;;;1.03;;
15342;SDS011;7771;48.478;8.936;2022-09-09T01:33:40;5.03;;;1.40;;
15342;SDS011;7771;48.478;8.936;2022-09-09T01:36:11;4.67;;;2.20;;
15342;SDS011;7771;48.478;8.936;2022-09-09T01:38:36;3.73;;;2.00;;
15342;SDS011;7771;48.478;8.936;2022-09-09T01:41:02;3.27;;;1.30;;
15342;SDS011;7771;48.478;8.936;2022-09-09T01:43:29;3.50;;;1.30;;
15342;SDS011;7771;48.478;8.936;2022-09-09T01:45:56;3.10;;;1.20;;
15342;SDS011;7771;48.478;8.936;2022-09-09T01:48:23;5.97;;;1.40;;
15342;SDS011;7771;48.478;8.936;2022-09-09T01:50:49;4.93;;;1.30;;
15342;SDS011;7771;48.478;8.936;2022-09-09T01:53:16;2.07;;;1.07;;
15342;SDS011;7771;48.478;8.936;2022-09-09T01:55:45;2.37;;;1.50;;
15342;SDS011;7771;48.478;8.936;2022-09-09T01:58:17;4.43;;;1.20;;
15342;SDS011;7771;48.478;8.936;2022-09-09T02:00:42;1.90;;;1.40;;
15342;SDS011;7771;48.478;8.936;2022-09-09T02:05:45;2.40;;;1.20;;
15342;SDS011;7771;48.478;8.936;2022-09-09T02:08:13;6.37;;;2.10;;
15342;SDS011;7771;48.478;8.936;2022-09-09T02:13:12;3.30;;;1.40;;
15342;SDS011;7771;48.478;8.936;2022-09-09T02:15:44;3.03;;;1.80;;
15342;SDS011;7771;48.478;8.936;2022-09-09T02:18:09;3.07;;;2.00;;
15342;SDS011;7771;48.478;8.936;2022-09-09T02:20:36;3.77;;;2.23;;
15342;SDS011;7771;48.478;8.936;2022-09-09T02:23:03;4.47;;;3.17;;
15342;SDS011;7771;48.478;8.936;2022-09-09T02:25:30;2.90;;;2.00;;
15342;SDS011;7771;48.478;8.936;2022-09-09T02:27:57;4.80;;;1.70;;
15342;SDS011;7771;48.478;8.936;2022-09-09T02:30:25;2.73;;;1.83;;
15342;SDS011;7771;48.478;8.936;2022-09-09T02:32:52;3.77;;;2.00;;
15342;SDS011;7771;48.478;8.936;2022-09-09T02:35:19;3.83;;;1.83;;
15342;SDS011;7771;48.478;8.936;2022-09-09T02:37:45;2.60;;;1.53;;
15342;SDS011;7771;48.478;8.936;2022-09-09T02:40:12;1.57;;;1.43;;
15342;SDS011;7771;48.478;8.936;2022-09-09T02:42:40;2.30;;;1.20;;
15342;SDS011;7771;48.478;8.936;2022-09-09T02:45:06;1.70;;;1.50;;
15342;SDS011;7771;48.478;8.936;2022-09-09T02:47:35;2.33;;;1.57;;
15342;SDS011;7771;48.478;8.936;2022-09-09T02:55:53;2.43;;;1.30;;
15342;SDS011;7771;48.478;8.936;2022-09-09T02:58:12;4.43;;;1.50;;
15342;SDS011;7771;48.478;8.936;2022-09-09T03:00:38;3.70;;;1.40;;
15342;SDS011;7771;48.478;8.936;2022-09-09T03:03:05;3.17;;;1.47;;
15342;SDS011;7771;48.478;8.936;2022-09-09T03:05:31;4.47;;;2.07;;
15342;SDS011;7771;48.478;8.936;2022-09-09T03:07:59;3.47;;;1.80;;
15342;SDS011;7771;48.478;8.936;2022-09-09T03:10:26;4.77;;;1.70;;
15342;SDS011;7771;48.478;8.936;2022-09-09T03:12:53;2.17;;;1.70;;
15342;SDS011;7771;48.478;8.936;2022-09-09T03:15:21;2.87;;;1.80;;
15342;SDS011;7771;48.478;8.936;2022-09-09T03:17:48;2.87;;;1.57;;
15342;SDS011;7771;48.478;8.936;2022-09-09T03:20:15;4.27;;;1.87;;
15342;SDS011;7771;48.478;8.936;2022-09-09T03:22:42;4.33;;;1.70;;
15342;SDS011;7771;48.478;8.936;2022-09-09T03:25:09;3.77;;;1.63;;
15342;SDS011;7771;48.478;8.936;2022-09-09T03:27:35;2.97;;;1.40;;
15342;SDS011;7771;48.478;8.936;2022-09-09T03:30:03;2.63;;;1.60;;
15342;SDS011;7771;48.478;8.936;2022-09-09T03:32:31;2.10;;;1.47;;
15342;SDS011;7771;48.478;8.936;2022-09-09T03:34:57;3.20;;;1.50;;
15342;SDS011;7771;48.478;8.936;2022-09-09T03:37:25;3.37;;;1.40;;
15342;SDS011;7771;48.478;8.936;2022-09-09T03:39:52;3.10;;;1.50;;
15342;SDS011;7771;48.478;8.936;2022-09-09T03:42:18;3.60;;;1.87;;
15342;SDS011;7771;48.478;8.936;2022-09-09T03:44:46;2.30;;;2.03;;
15342;SDS011;7771;48.478;8.936;2022-09-09T03:47:17;4.83;;;2.13;;
15342;SDS011;7771;48.478;8.936;2022-09-09T03:49:43;2.47;;;1.93;;
15342;SDS011;7771;48.478;8.936;2022-09-09T03:52:10;4.87;;;1.77;;
15342;SDS011;7771;48.478;8.936;2022-09-09T03:54:36;4.40;;;1.90;;
15342;SDS011;7771;48.478;8.936;2022-09-09T03:57:03;3.23;;;1.70;;
15342;SDS011;7771;48.478;8.936;2022-09-09T03:59:30;2.00;;;1.50;;
15342;SDS011;7771;48.478;8.936;2022-09-09T04:01:57;4.13;;;1.70;;
15342;SDS011;7771;48.478;8.936;2022-09-09T04:04:24;3.90;;;1.60;;
15342;SDS011;7771;48.478;8.936;2022-09-09T04:06:51;5.40;;;2.33;;
15342;SDS011;7771;48.478;8.936;2022-09-09T04:09:17;3.97;;;1.97;;
15342;SDS011;7771;48.478;8.936;2022-09-09T04:11:44;3.87;;;2.30;;
15342;SDS011;7771;48.478;8.936;2022-09-09T04:14:12;6.17;;;2.20;;
15342;SDS011;7771;48.478;8.936;2022-09-09T04:16:39;2.97;;;1.63;;
15342;SDS011;7771;48.478;8.936;2022-09-09T04:19:06;2.40;;;1.80;;
15342;SDS011;7771;48.478;8.936;2022-09-09T04:21:34;2.40;;;1.50;;
15342;SDS011;7771;48.478;8.936;2022-09-09T04:24:01;4.47;;;1.63;;
15342;SDS011;7771;48.478;8.936;2022-09-09T04:26:27;1.80;;;1.50;;
15342;SDS011;7771;48.478;8.936;2022-09-09T04:28:54;3.83;;;1.50;;
15342;SDS011;7771;48.478;8.936;2022-09-09T04:31:22;3.00;;;1.60;;
15342;SDS011;7771;48.478;8.936;2022-09-09T04:33:49;3.83;;;1.70;;
15342;SDS011;7771;48.478;8.936;2022-09-09T04:36:15;3.10;;;1.80;;
15342;SDS011;7771;48.478;8.936;2022-09-09T04:38:42;5.43;;;1.80;;
15342;SDS011;7771;48.478;8.936;2022-09-09T04:41:08;2.40;;;1.77;;
15342;SDS011;7771;48.478;8.936;2022-09-09T04:43:35;4.83;;;2.20;;
15342;SDS011;7771;48.478;8.936;2022-09-09T04:46:01;3.27;;;1.60;;
15342;SDS011;7771;48.478;8.936;2022-09-09T04:48:28;3.23;;;1.60;;
15342;SDS011;7771;48.478;8.936;2022-09-09T04:50:55;3.67;;;1.63;;
15342;SDS011;7771;48.478;8.936;2022-09-09T04:53:22;2.53;;;2.00;;
15342;SDS011;7771;48.478;8.936;2022-09-09T04:55:49;3.00;;;1.90;;
15342;SDS011;7771;48.478;8.936;2022-09-09T04:58:15;3.37;;;1.70;;
15342;SDS011;7771;48.478;8.936;2022-09-09T05:00:42;4.47;;;1.70;;
15342;SDS011;7771;48.478;8.936;2022-09-09T05:03:08;5.07;;;1.80;;
15342;SDS011;7771;48.478;8.936;2022-09-09T05:05:36;5.00;;;1.70;;
15342;SDS011;7771;48.478;8.936;2022-09-09T05:08:04;1.93;;;1.70;;
15342;SDS011;7771;48.478;8.936;2022-09-09T05:10:30;3.10;;;1.53;;
15342;SDS011;7771;48.478;8.936;2022-09-09T05:12:57;3.73;;;1.60;;
15342;SDS011;7771;48.478;8.936;2022-09-09T05:15:24;3.00;;;1.70;;
15342;SDS011;7771;48.478;8.936;2022-09-09T05:17:52;5.07;;;2.13;;
15342;SDS011;7771;48.478;8.936;2022-09-09T05:20:19;3.70;;;1.80;;
15342;SDS011;7771;48.478;8.936;2022-09-09T05:22:45;5.27;;;1.70;;
15342;SDS011;7771;48.478;8.936;2022-09-09T05:25:12;3.97;;;1.70;;
15342;SDS011;7771;48.478;8.936;2022-09-09T05:27:38;3.03;;;1.57;;
15342;SDS011;7771;48.478;8.936;2022-09-09T05:30:05;4.70;;;1.90;;
15342;SDS011;7771;48.478;8.936;2022-09-09T05:32:32;2.60;;;1.80;;
15342;SDS011;7771;48.478;8.936;2022-09-09T05:34:59;4.30;;;1.60;;
15342;SDS011;7771;48.478;8.936;2022-09-09T05:37:26;2.27;;;1.47;;
15342;SDS011;7771;48.478;8.936;2022-09-09T05:39:52;2.83;;;1.50;;
15342;SDS011;7771;48.478;8.936;2022-09-09T05:42:19;4.40;;;1.50;;
15342;SDS011;7771;48.478;8.936;2022-09-09T05:47:31;4.23;;;1.43;;
15342;SDS011;7771;48.478;8.936;2022-09-09T05:49:59;4.70;;;1.30;;
15342;SDS011;7771;48.478;8.936;2022-09-09T05:52:26;4.00;;;1.70;;
15342;SDS011;7771;48.478;8.936;2022-09-09T05:54:52;2.97;;;1.20;;
15342;SDS011;7771;48.478;8.936;2022-09-09T05:57:19;2.63;;;1.60;;
15342;SDS011;7771;48.478;8.936;2022-09-09T05:59:46;3.50;;;1.73;;
15342;SDS011;7771;48.478;8.936;2022-09-09T06:02:12;2.20;;;1.77;;
15342;SDS011;7771;48.478;8.936;2022-09-09T06:04:39;3.97;;;1.70;;
15342;SDS011;7771;48.478;8.936;2022-09-09T06:07:05;4.60;;;1.40;;
15342;SDS011;7771;48.478;8.936;2022-09-09T06:09:33;2.87;;;1.50;;
15342;SDS011;7771;48.478;8.936;2022-09-09T06:12:00;2.37;;;1.40;;
15342;SDS011;7771;48.478;8.936;2022-09-09T06:14:27;4.43;;;1.60;;
15342;SDS011;7771;48.478;8.936;2022-09-09T06:16:53;4.07;;;1.47;;
15342;SDS011;7771;48.478;8.936;2022-09-09T06:19:20;2.50;;;1.80;;
15342;SDS011;7771;48.478;8.936;2022-09-09T06:21:46;2.93;;;2.23;;
15342;SDS011;7771;48.478;8.936;2022-09-09T06:24:13;4.30;;;2.10;;
15342;SDS011;7771;48.478;8.936;2022-09-09T06:26:40;5.87;;;2.20;;
15342;SDS011;7771;48.478;8.936;2022-09-09T06:29:07;3.60;;;2.20;;
15342;SDS011;7771;48.478;8.936;2022-09-09T06:31:35;4.67;;;2.27;;
15342;SDS011;7771;48.478;8.936;2022-09-09T06:34:03;4.90;;;1.93;;
15342;SDS011;7771;48.478;8.936;2022-09-09T06:36:30;5.07;;;2.20;;
15342;SDS011;7771;48.478;8.936;2022-09-09T06:38:57;6.73;;;2.00;;
15342;SDS011;7771;48.478;8.936;2022-09-09T06:41:24;2.63;;;2.00;;
15342;SDS011;7771;48.478;8.936;2022-09-09T06:43:50;3.63;;;2.07;;
15342;SDS011;7771;48.478;8.936;2022-09-09T06:46:17;2.00;;;1.60;;
15342;SDS011;7771;48.478;8.936;2022-09-09T06:48:44;3.80;;;2.30;;
15342;SDS011;7771;48.478;8.936;2022-09-09T06:51:11;4.33;;;2.60;;
15342;SDS011;7771;48.478;8.936;2022-09-09T06:53:39;3.40;;;2.30;;
15342;SDS011;7771;48.478;8.936;2022-09-09T06:56:25;2.83;;;1.83;;
15342;SDS011;7771;48.478;8.936;2022-09-09T06:58:51;5.33;;;2.53;;
15342;SDS011;7771;48.478;8.936;2022-09-09T07:01:19;2.10;;;1.70;;
15342;SDS011;7771;48.478;8.936;2022-09-09T07:03:46;5.20;;;2.62;;
15342;SDS011;7771;48.478;8.936;2022-09-09T07:06:15;2.58;;;1.50;;
15342;SDS011;7771;48.478;8.936;2022-09-09T07:08:41;5.33;;;1.60;;
15342;SDS011;7771;48.478;8.936;2022-09-09T07:11:08;8.98;;;2.15;;
15342;SDS011;7771;48.478;8.936;2022-09-09T07:13:34;3.45;;;1.83;;
15342;SDS011;7771;48.478;8.936;2022-09-09T07:16:04;4.70;;;1.60;;
15342;SDS011;7771;48.478;8.936;2022-09-09T07:18:31;3.25;;;1.55;;
15342;SDS011;7771;48.478;8.936;2022-09-09T07:20:57;2.40;;;1.50;;
15342;SDS011;7771;48.478;8.936;2022-09-09T07:23:24;2.70;;;2.12;;
15342;SDS011;7771;48.478;8.936;2022-09-09T07:25:52;6.20;;;2.12;;
15342;SDS011;7771;48.478;8.936;2022-09-09T07:28:20;2.17;;;1.37;;
15342;SDS011;7771;48.478;8.936;2022-09-09T07:30:54;6.37;;;1.40;;
15342;SDS011;7771;48.478;8.936;2022-09-09T07:33:20;2.12;;;1.30;;
15342;SDS011;7771;48.478;8.936;2022-09-09T07:35:47;3.62;;;1.30;;
15342;SDS011;7771;48.478;8.936;2022-09-09T07:38:13;3.20;;;1.55;;
15342;SDS011;7771;48.478;8.936;2022-09-09T07:40:41;5.07;;;1.60;;
15342;SDS011;7771;48.478;8.936;2022-09-09T07:43:08;2.35;;;1.30;;
15342;SDS011;7771;48.478;8.936;2022-09-09T07:45:34;3.75;;;1.52;;
15342;SDS011;7771;48.478;8.936;2022-09-09T07:48:01;2.20;;;1.48;;
15342;SDS011;7771;48.478;8.936;2022-09-09T07:50:28;3.80;;;1.75;;
15342;SDS011;7771;48.478;8.936;2022-09-09T07:52:55;2.75;;;1.58;;
15342;SDS011;7771;48.478;8.936;2022-09-09T07:55:22;2.12;;;1.40;;
15342;SDS011;7771;48.478;8.936;2022-09-09T07:57:53;3.45;;;1.40;;
15342;SDS011;7771;48.478;8.936;2022-09-09T08:00:19;2.90;;;1.27;;
15342;SDS011;7771;48.478;8.936;2022-09-09T08:02:45;2.92;;;1.08;;
15342;SDS011;7771;48.478;8.936;2022-09-09T08:05:12;1.85;;;1.33;;
15342;SDS011;7771;48.478;8.936;2022-09-09T08:07:39;4.47;;;1.52;;
15342;SDS011;7771;48.478;8.936;2022-09-09T08:10:06;2.25;;;1.30;;
15342;SDS011;7771;48.478;8.936;2022-09-09T08:12:32;3.12;;;1.33;;
15342;SDS011;7771;48.478;8.936;2022-09-09T08:14:59;5.45;;;1.62;;
15342;SDS011;7771;48.478;8.936;2022-09-09T08:17:26;2.83;;;1.30;;
15342;SDS011;7771;48.478;8.936;2022-09-09T08:19:52;3.70;;;1.17;;
15342;SDS011;7771;48.478;8.936;2022-09-09T08:22:24;1.67;;;1.10;;
15342;SDS011;7771;48.478;8.936;2022-09-09T08:24:52;2.08;;;1.20;;
15342;SDS011;7771;48.478;8.936;2022-09-09T08:27:19;2.25;;;1.17;;
15342;SDS011;7771;48.478;8.936;2022-09-09T08:29:46;2.87;;;1.40;;
15342;SDS011;7771;48.478;8.936;2022-09-09T08:32:13;3.17;;;1.48;;
15342;SDS011;7771;48.478;8.936;2022-09-09T08:34:40;2.85;;;1.40;;
15342;SDS011;7771;48.478;8.936;2022-09-09T08:37:07;3.20;;;1.70;;
15342;SDS011;7771;48.478;8.936;2022-09-09T08:39:35;6.78;;;1.50;;
15342;SDS011;7771;48.478;8.936;2022-09-09T08:42:06;2.28;;;1.37;;
15342;SDS011;7771;48.478;8.936;2022-09-09T08:44:44;2.00;;;1.12;;
15342;SDS011;7771;48.478;8.936;2022-09-09T08:50:26;2.22;;;1.08;;
15342;SDS011;7771;48.478;8.936;2022-09-09T08:52:49;1.87;;;0.98;;
15342;SDS011;7771;48.478;8.936;2022-09-09T08:55:18;1.92;;;1.05;;
15342;SDS011;7771;48.478;8.936;2022-09-09T08:57:57;3.15;;;1.02;;
15342;SDS011;7771;48.478;8.936;2022-09-09T09:00:23;2.87;;;0.82;;
15342;SDS011;7771;48.478;8.936;2022-09-09T09:02:57;2.10;;;1.10;;
15342;SDS011;7771;48.478;8.936;2022-09-09T09:05:30;2.17;;;1.12;;
15342;SDS011;7771;48.478;8.936;2022-09-09T09:08:04;2.70;;;0.98;;
15342;SDS011;7771;48.478;8.936;2022-09-09T09:10:35;2.53;;;1.00;;
15342;SDS011;7771;48.478;8.936;2022-09-09T09:12:59;4.82;;;1.45;;
15342;SDS011;7771;48.478;8.936;2022-09-09T09:15:27;1.52;;;0.80;;
15342;SDS011;7771;48.478;8.936;2022-09-09T09:17:53;3.03;;;1.30;;
15342;SDS011;7771;48.478;8.936;2022-09-09T09:20:23;2.55;;;0.95;;
15342;SDS011;7771;48.478;8.936;2022-09-09T09:22:49;1.90;;;0.95;;
15342;SDS011;7771;48.478;8.936;2022-09-09T09:25:18;2.22;;;0.93;;
15342;SDS011;7771;48.478;8.936;2022-09-09T09:27:48;2.87;;;1.05;;
15342;SDS011;7771;48.478;8.936;2022-09-09T09:30:17;3.47;;;1.15;;
15342;SDS011;7771;48.478;8.936;2022-09-09T09:32:45;4.53;;;1.25;;
15342;SDS011;7771;48.478;8.936;2022-09-09T09:35:11;3.58;;;1.00;;
15342;SDS011;7771;48.478;8.936;2022-09-09T09:37:39;3.40;;;1.00;;
15342;SDS011;7771;48.478;8.936;2022-09-09T09:40:08;2.95;;;1.10;;
15342;SDS011;7771;48.478;8.936;2022-09-09T09:42:38;4.72;;;1.08;;
15342;SDS011;7771;48.478;8.936;2022-09-09T09:45:08;2.65;;;0.98;;
15342;SDS011;7771;48.478;8.936;2022-09-09T09:47:33;2.72;;;1.00;;
15342;SDS011;7771;48.478;8.936;2022-09-09T09:50:00;2.00;;;0.77;;
15342;SDS011;7771;48.478;8.936;2022-09-09T09:52:27;2.83;;;0.90;;
15342;SDS011;7771;48.478;8.936;2022-09-09T09:54:53;3.50;;;0.95;;
15342;SDS011;7771;48.478;8.936;2022-09-09T09:57:22;4.50;;;0.93;;
15342;SDS011;7771;48.478;8.936;2022-09-09T09:59:46;2.60;;;1.10;;
15342;SDS011;7771;48.478;8.936;2022-09-09T10:02:13;2.70;;;0.85;;
15342;SDS011;7771;48.478;8.936;2022-09-09T10:04:41;1.45;;;0.95;;
15342;SDS011;7771;48.478;8.936;2022-09-09T10:07:11;2.47;;;1.05;;
15342;SDS011;7771;48.478;8.936;2022-09-09T10:09:36;1.75;;;0.80;;
15342;SDS011;7771;48.478;8.936;2022-09-09T10:15:16;2.97;;;1.00;;
15342;SDS011;7771;48.478;8.936;2022-09-09T10:17:59;2.65;;;1.00;;
15342;SDS011;7771;48.478;8.936;2022-09-09T10:23:15;2.40;;;0.75;;
15342;SDS011;7771;48.478;8.936;2022-09-09T10:28:31;2.05;;;0.90;;
15342;SDS011;7771;48.478;8.936;2022-09-09T10:31:05;4.22;;;0.95;;
15342;SDS011;7771;48.478;8.936;2022-09-09T10:33:37;2.85;;;1.00;;
15342;SDS011;7771;48.478;8.936;2022-09-09T10:36:16;3.50;;;0.95;;
15342;SDS011;7771;48.478;8.936;2022-09-09T10:39:05;2.78;;;0.70;;
15342;SDS011;7771;48.478;8.936;2022-09-09T10:41:52;2.05;;;0.80;;
15342;SDS011;7771;48.478;8.936;2022-09-09T10:44:22;4.70;;;1.20;;
15342;SDS011;7771;48.478;8.936;2022-09-09T10:46:59;4.62;;;1.00;;
15342;SDS011;7771;48.478;8.936;2022-09-09T10:49:30;3.65;;;0.80;;
15342;SDS011;7771;48.478;8.936;2022-09-09T10:52:29;4.20;;;1.35;;
15342;SDS011;7771;48.478;8.936;2022-09-09T10:54:47;2.03;;;0.80;;
15342;SDS011;7771;48.478;8.936;2022-09-09T10:57:13;3.85;;;0.80;;
15342;SDS011;7771;48.478;8.936;2022-09-09T10:59:42;1.87;;;0.52;;
15342;SDS011;7771;48.478;8.936;2022-09-09T11:02:12;0.98;;;0.70;;
15342;SDS011;7771;48.478;8.936;2022-09-09T11:04:45;2.17;;;0.70;;
15342;SDS011;7771;48.478;8.936;2022-09-09T11:07:10;3.45;;;0.90;;
15342;SDS011;7771;48.478;8.936;2022-09-09T11:09:38;3.25;;;0.90;;
15342;SDS011;7771;48.478;8.936;2022-09-09T11:12:03;3.22;;;0.62;;
15342;SDS011;7771;48.478;8.936;2022-09-09T11:14:34;1.08;;;0.62;;
15342;SDS011;7771;48.478;8.936;2022-09-09T11:17:02;0.93;;;0.50;;
15342;SDS011;7771;48.478;8.936;2022-09-09T11:19:34;1.30;;;0.35;;
15342;SDS011;7771;48.478;8.936;2022-09-09T11:22:01;1.23;;;0.70;;
15342;SDS011;7771;48.478;8.936;2022-09-09T11:24:29;1.67;;;0.70;;
15342;SDS011;7771;48.478;8.936;2022-09-09T11:26:55;0.70;;;0.50;;
15342;SDS011;7771;48.478;8.936;2022-09-09T11:29:29;1.80;;;0.50;;
15342;SDS011;7771;48.478;8.936;2022-09-09T11:32:00;3.90;;;1.48;;
15342;SDS011;7771;48.478;8.936;2022-09-09T11:34:34;1.30;;;0.43;;
15342;SDS011;7771;48.478;8.936;2022-09-09T11:37:06;1.77;;;0.60;;
15342;SDS011;7771;48.478;8.936;2022-09-09T11:39:37;1.87;;;0.40;;
15342;SDS011;7771;48.478;8.936;2022-09-09T11:42:06;1.85;;;0.85;;
15342;SDS011;7771;48.478;8.936;2022-09-09T11:44:32;1.62;;;0.40;;
15342;SDS011;7771;48.478;8.936;2022-09-09T11:46:58;2.15;;;0.50;;
15342;SDS011;7771;48.478;8.936;2022-09-09T11:49:26;1.05;;;0.40;;
15342;SDS011;7771;48.478;8.936;2022-09-09T11:51:54;2.08;;;0.47;;
15342;SDS011;7771;48.478;8.936;2022-09-09T11:54:28;2.65;;;0.65;;
15342;SDS011;7771;48.478;8.936;2022-09-09T11:56:53;1.65;;;0.50;;
15342;SDS011;7771;48.478;8.936;2022-09-09T11:59:21;2.87;;;0.70;;
15342;SDS011;7771;48.478;8.936;2022-09-09T12:01:49;5.95;;;0.80;;
15342;SDS011;7771;48.478;8.936;2022-09-09T12:04:21;1.70;;;0.65;;
15342;SDS011;7771;48.478;8.936;2022-09-09T12:06:56;2.08;;;0.55;;
15342;SDS011;7771;48.478;8.936;2022-09-09T12:09:25;2.05;;;0.60;;
15342;SDS011;7771;48.478;8.936;2022-09-09T12:14:36;1.45;;;0.60;;
15342;SDS011;7771;48.478;8.936;2022-09-09T12:19:35;1.52;;;0.73;;
15342;SDS011;7771;48.478;8.936;2022-09-09T12:22:06;1.52;;;0.57;;
15342;SDS011;7771;48.478;8.936;2022-09-09T12:24:35;1.80;;;0.60;;
15342;SDS011;7771;48.478;8.936;2022-09-09T12:27:06;2.35;;;0.80;;
15342;SDS011;7771;48.478;8.936;2022-09-09T12:29:37;1.90;;;0.60;;
15342;SDS011;7771;48.478;8.936;2022-09-09T12:32:06;2.22;;;0.60;;
15342;SDS011;7771;48.478;8.936;2022-09-09T12:34:38;1.70;;;0.60;;
15342;SDS011;7771;48.478;8.936;2022-09-09T12:37:12;1.02;;;0.60;;
15342;SDS011;7771;48.478;8.936;2022-09-09T12:39:36;1.02;;;0.60;;
15342;SDS011;7771;48.478;8.936;2022-09-09T12:42:01;2.30;;;0.60;;
15342;SDS011;7771;48.478;8.936;2022-09-09T12:44:28;1.75;;;0.60;;
15342;SDS011;7771;48.478;8.936;2022-09-09T12:46:55;2.53;;;0.65;;
15342;SDS011;7771;48.478;8.936;2022-09-09T12:49:24;2.65;;;0.80;;
15342;SDS011;7771;48.478;8.936;2022-09-09T12:51:53;2.15;;;0.70;;
15342;SDS011;7771;48.478;8.936;2022-09-09T12:54:19;1.73;;;0.95;;
15342;SDS011;7771;48.478;8.936;2022-09-09T12:56:46;2.17;;;0.73;;
15342;SDS011;7771;48.478;8.936;2022-09-09T12:59:25;0.82;;;0.55;;
15342;SDS011;7771;48.478;8.936;2022-09-09T13:01:55;2.08;;;0.75;;
15342;SDS011;7771;48.478;8.936;2022-09-09T13:04:21;2.17;;;0.68;;
15342;SDS011;7771;48.478;8.936;2022-09-09T13:06:48;2.97;;;0.85;;
15342;SDS011;7771;48.478;8.936;2022-09-09T13:09:15;2.95;;;0.80;;
15342;SDS011;7771;48.478;8.936;2022-09-09T13:11:43;2.42;;;0.90;;
15342;SDS011;7771;48.478;8.936;2022-09-09T13:14:12;3.65;;;0.80;;
15342;SDS011;7771;48.478;8.936;2022-09-09T13:16:38;3.10;;;0.80;;
15342;SDS011;7771;48.478;8.936;2022-09-09T13:19:07;1.75;;;0.52;;
15342;SDS011;7771;48.478;8.936;2022-09-09T13:21:34;1.02;;;0.60;;
15342;SDS011;7771;48.478;8.936;2022-09-09T13:24:00;1.58;;;0.75;;
15342;SDS011;7771;48.478;8.936;2022-09-09T13:26:30;1.60;;;0.90;;
15342;SDS011;7771;48.478;8.936;2022-09-09T13:29:17;3.70;;;2.00;;
15342;SDS011;7771;48.478;8.936;2022-09-09T13:31:43;2.08;;;0.80;;
15342;SDS011;7771;48.478;8.936;2022-09-09T13:34:12;2.92;;;0.90;;
15342;SDS011;7771;48.478;8.936;2022-09-09T13:36:38;2.28;;;0.70;;
15342;SDS011;7771;48.478;8.936;2022-09-09T13:39:05;3.97;;;0.70;;
15342;SDS011;7771;48.478;8.936;2022-09-09T13:41:33;1.83;;;0.80;;
15342;SDS011;7771;48.478;8.936;2022-09-09T13:43:59;2.10;;;0.73;;
15342;SDS011;7771;48.478;8.936;2022-09-09T13:46:31;2.42;;;0.80;;
15342;SDS011;7771;48.478;8.936;2022-09-09T13:49:01;1.83;;;0.73;;
15342;SDS011;7771;48.478;8.936;2022-09-09T13:51:43;2.80;;;0.77;;
15342;SDS011;7771;48.478;8.936;2022-09-09T13:54:10;1.90;;;0.70;;
15342;SDS011;7771;48.478;8.936;2022-09-09T13:56:36;2.37;;;0.90;;
15342;SDS011;7771;48.478;8.936;2022-09-09T13:59:03;0.62;;;0.40;;
15342;SDS011;7771;48.478;8.936;2022-09-09T14:04:16;1.67;;;0.50;;
15342;SDS011;7771;48.478;8.936;2022-09-09T14:06:43;2.53;;;0.98;;
15342;SDS011;7771;48.478;8.936;2022-09-09T14:09:11;1.45;;;0.90;;
15342;SDS011;7771;48.478;8.936;2022-09-09T14:11:36;1.45;;;0.82;;
15342;SDS011;7771;48.478;8.936;2022-09-09T14:14:03;1.98;;;0.60;;
15342;SDS011;7771;48.478;8.936;2022-09-09T14:16:29;1.75;;;0.90;;
15342;SDS011;7771;48.478;8.936;2022-09-09T14:18:56;1.52;;;0.80;;
15342;SDS011;7771;48.478;8.936;2022-09-09T14:21:24;1.40;;;0.60;;
15342;SDS011;7771;48.478;8.936;2022-09-09T14:23:51;1.58;;;0.60;;
15342;SDS011;7771;48.478;8.936;2022-09-09T14:26:20;1.33;;;0.60;;
15342;SDS011;7771;48.478;8.936;2022-09-09T14:28:48;3.92;;;0.80;;
15342;SDS011;7771;48.478;8.936;2022-09-09T14:31:14;1.58;;;0.60;;
15342;SDS011;7771;48.478;8.936;2022-09-09T14:33:41;2.75;;;0.95;;
15342;SDS011;7771;48.478;8.936;2022-09-09T14:36:08;1.92;;;0.62;;
15342;SDS011;7771;48.478;8.936;2022-09-09T14:38:35;2.20;;;1.05;;
15342;SDS011;7771;48.478;8.936;2022-09-09T14:41:02;0.68;;;0.40;;
15342;SDS011;7771;48.478;8.936;2022-09-09T14:43:30;3.35;;;1.00;;
15342;SDS011;7771;48.478;8.936;2022-09-09T14:45:57;3.60;;;0.82;;
15342;SDS011;7771;48.478;8.936;2022-09-09T14:48:24;1.45;;;0.77;;
15342;SDS011;7771;48.478;8.936;2022-09-09T14:50:52;1.48;;;0.65;;
15342;SDS011;7771;48.478;8.936;2022-09-09T14:53:19;1.55;;;0.60;;
15342;SDS011;7771;48.478;8.936;2022-09-09T14:55:46;1.40;;;0.32;;
15342;SDS011;7771;48.478;8.936;2022-09-09T14:58:12;2.85;;;0.75;;
15342;SDS011;7771;48.478;8.936;2022-09-09T15:00:39;3.80;;;0.88;;
15342;SDS011;7771;48.478;8.936;2022-09-09T15:03:05;1.55;;;0.65;;
15342;SDS011;7771;48.478;8.936;2022-09-09T15:05:32;2.70;;;0.85;;
15342;SDS011;7771;48.478;8.936;2022-09-09T15:07:59;3.15;;;0.85;;
15342;SDS011;7771;48.478;8.936;2022-09-09T15:10:25;2.70;;;0.60;;
15342;SDS011;7771;48.478;8.936;2022-09-09T15:12:52;3.50;;;1.10;;
15342;SDS011;7771;48.478;8.936;2022-09-09T15:15:20;3.97;;;0.98;;
15342;SDS011;7771;48.478;8.936;2022-09-09T15:17:47;2.42;;;1.15;;
15342;SDS011;7771;48.478;8.936;2022-09-09T15:20:13;1.62;;;0.90;;
15342;SDS011;7771;48.478;8.936;2022-09-09T15:22:41;2.83;;;1.00;;
15342;SDS011;7771;48.478;8.936;2022-09-09T15:25:08;3.42;;;2.20;;
15342;SDS011;7771;48.478;8.936;2022-09-09T15:27:35;1.55;;;0.50;;
15342;SDS011;7771;48.478;8.936;2022-09-09T15:30:03;1.83;;;0.62;;
15342;SDS011;7771;48.478;8.936;2022-09-09T15:32:30;2.05;;;0.60;;
15342;SDS011;7771;48.478;8.936;2022-09-09T15:34:57;1.20;;;0.73;;
15342;SDS011;7771;48.478;8.936;2022-09-09T15:37:23;1.83;;;0.62;;
15342;SDS011;7771;48.478;8.936;2022-09-09T15:39:50;1.98;;;0.90;;
15342;SDS011;7771;48.478;8.936;2022-09-09T15:42:16;4.40;;;1.60;;
15342;SDS011;7771;48.478;8.936;2022-09-09T15:44:43;1.87;;;0.60;;
15342;SDS011;7771;48.478;8.936;2022-09-09T15:47:11;5.40;;;1.90;;
15342;SDS011;7771;48.478;8.936;2022-09-09T15:49:38;1.90;;;1.30;;
15342;SDS011;7771;48.478;8.936;2022-09-09T15:52:05;2.67;;;0.95;;